createdAt,value
2018-06-17T00:00:26.578Z,6.90
2018-06-17T00:02:54.716Z,7.27
2018-06-17T00:05:22.872Z,6.70
2018-06-17T00:07:50.999Z,5.97
2018-06-17T00:10:19.111Z,6.40
2018-06-17T00:12:47.235Z,6.50
2018-06-17T00:15:15.439Z,6.20
2018-06-17T00:17:43.320Z,6.40
2018-06-17T00:20:11.525Z,5.97
2018-06-17T00:22:39.634Z,5.77
2018-06-17T00:25:07.751Z,5.80
2018-06-17T00:27:35.925Z,5.63
2018-06-17T00:30:04.302Z,5.10
2018-06-17T00:32:32.415Z,5.03
2018-06-17T00:35:00.530Z,5.43
2018-06-17T00:37:28.655Z,5.57
2018-06-17T00:39:56.807Z,5.47
2018-06-17T00:42:24.916Z,5.53
2018-06-17T00:44:53.040Z,5.33
2018-06-17T00:47:21.235Z,5.57
2018-06-17T00:49:49.299Z,5.80
2018-06-17T00:52:17.449Z,5.30
2018-06-17T00:54:45.563Z,6.07
2018-06-17T00:57:25.139Z,5.30
2018-06-17T00:59:53.271Z,6.27
2018-06-17T01:02:21.463Z,5.73
2018-06-17T01:04:49.642Z,5.70
2018-06-17T01:07:17.783Z,4.90
2018-06-17T01:09:45.909Z,5.07
2018-06-17T01:12:16.103Z,5.00
2018-06-17T01:14:44.251Z,5.03
2018-06-17T01:17:12.367Z,5.30
2018-06-17T01:19:40.487Z,4.60
2018-06-17T01:22:08.622Z,4.60
2018-06-17T01:24:36.750Z,4.87
2018-06-17T01:27:04.884Z,4.80
2018-06-17T01:29:33.003Z,5.03
2018-06-17T01:32:01.134Z,4.73
2018-06-17T01:34:29.274Z,4.60
2018-06-17T01:36:57.398Z,4.80
2018-06-17T01:39:25.542Z,4.80
2018-06-17T01:41:53.658Z,4.43
2018-06-17T01:44:21.790Z,4.80
2018-06-17T01:46:49.923Z,4.63
2018-06-17T01:49:18.098Z,4.53
2018-06-17T01:51:46.279Z,4.27
2018-06-17T01:54:14.366Z,4.47
2018-06-17T01:56:42.495Z,4.30
2018-06-17T01:59:10.627Z,4.50
2018-06-17T02:01:38.805Z,4.50
2018-06-17T02:04:12.266Z,4.67
2018-06-17T02:06:45.812Z,4.17
2018-06-17T02:09:19.346Z,4.30
2018-06-17T02:11:53.027Z,4.53
2018-06-17T02:14:26.560Z,4.47
2018-06-17T02:16:54.682Z,5.00
2018-06-17T02:19:22.807Z,5.10
2018-06-17T02:21:50.922Z,4.57
2018-06-17T02:24:19.047Z,4.93
2018-06-17T02:26:47.194Z,5.30
2018-06-17T02:29:15.317Z,5.50
2018-06-17T02:31:43.442Z,5.90
2018-06-17T02:34:11.626Z,5.70
2018-06-17T02:36:39.760Z,5.37
2018-06-17T02:39:08.701Z,5.70
2018-06-17T02:41:37.394Z,6.00
2018-06-17T02:44:05.626Z,6.20
2018-06-17T02:46:39.302Z,6.53
2018-06-17T02:49:13.190Z,6.80
2018-06-17T02:51:46.828Z,5.87
2018-06-17T02:54:20.471Z,6.33
2018-06-17T02:56:48.606Z,5.73
2018-06-17T02:59:16.933Z,6.70
2018-06-17T03:01:45.064Z,6.70
2018-06-17T03:04:13.186Z,7.33
2018-06-17T03:06:41.319Z,6.37
2018-06-17T03:09:10.443Z,6.70
2018-06-17T03:11:38.607Z,6.73
2018-06-17T03:14:07.404Z,6.63
2018-06-17T03:16:35.651Z,6.77
2018-06-17T03:19:03.772Z,6.47
2018-06-17T03:21:32.135Z,6.83
2018-06-17T03:24:00.275Z,5.70
2018-06-17T03:26:33.761Z,6.47
2018-06-17T03:29:07.260Z,6.23
2018-06-17T03:31:40.786Z,6.30
2018-06-17T03:34:08.922Z,6.10
2018-06-17T03:36:37.055Z,6.40
2018-06-17T03:39:06.826Z,6.10
2018-06-17T03:41:34.975Z,5.73
2018-06-17T03:44:03.102Z,6.13
2018-06-17T03:46:31.238Z,6.50
2018-06-17T03:48:59.367Z,6.03
2018-06-17T03:51:27.520Z,5.70
2018-06-17T03:53:55.650Z,5.93
2018-06-17T03:56:23.770Z,5.53
2018-06-17T03:58:51.942Z,5.10
2018-06-17T04:01:20.181Z,5.57
2018-06-17T04:03:48.314Z,6.20
2018-06-17T04:06:16.452Z,6.57
2018-06-17T04:08:44.578Z,6.17
2018-06-17T04:11:12.711Z,6.70
2018-06-17T04:13:40.863Z,7.03
2018-06-17T04:16:08.983Z,7.07
2018-06-17T04:18:37.155Z,7.23
2018-06-17T04:21:05.042Z,7.43
2018-06-17T04:23:33.178Z,7.17
2018-06-17T04:26:01.306Z,6.70
2018-06-17T04:28:30.242Z,6.03
2018-06-17T04:30:58.401Z,6.30
2018-06-17T04:33:26.538Z,6.00
2018-06-17T04:35:54.858Z,5.27
2018-06-17T04:38:22.995Z,4.87
2018-06-17T04:40:51.114Z,4.33
2018-06-17T04:43:19.246Z,4.63
2018-06-17T04:45:47.355Z,4.30
2018-06-17T04:48:15.495Z,4.30
2018-06-17T04:50:43.673Z,4.47
2018-06-17T04:53:11.796Z,4.20
2018-06-17T04:55:39.925Z,4.37
2018-06-17T04:58:08.079Z,4.17
2018-06-17T05:00:36.195Z,4.10
2018-06-17T05:03:04.357Z,4.03
2018-06-17T05:05:32.495Z,3.83
2018-06-17T05:08:00.606Z,4.00
2018-06-17T05:10:28.723Z,3.97
2018-06-17T05:12:56.851Z,4.47
2018-06-17T05:15:25.013Z,3.80
2018-06-17T05:17:53.134Z,4.67
2018-06-17T05:20:21.280Z,4.00
2018-06-17T05:22:49.416Z,4.40
2018-06-17T05:25:17.626Z,4.40
2018-06-17T05:27:45.770Z,4.20
2018-06-17T05:30:13.886Z,4.43
2018-06-17T05:32:41.800Z,3.70
2018-06-17T05:35:09.930Z,3.90
2018-06-17T05:37:38.056Z,3.87
2018-06-17T05:40:06.304Z,4.40
2018-06-17T05:42:34.429Z,4.00
2018-06-17T05:45:02.642Z,4.03
2018-06-17T05:47:30.849Z,3.90
2018-06-17T05:49:58.919Z,3.80
2018-06-17T05:52:27.059Z,3.63
2018-06-17T05:54:55.310Z,4.20
2018-06-17T05:57:23.440Z,4.10
2018-06-17T05:59:51.570Z,3.60
2018-06-17T06:02:19.701Z,4.47
2018-06-17T06:04:47.863Z,3.80
2018-06-17T06:07:15.998Z,3.57
2018-06-17T06:09:44.122Z,3.50
2018-06-17T06:12:12.288Z,3.23
2018-06-17T06:14:40.437Z,3.97
2018-06-17T06:17:08.574Z,3.97
2018-06-17T06:19:36.706Z,3.10
2018-06-17T06:22:04.826Z,3.77
2018-06-17T06:24:32.954Z,3.57
2018-06-17T06:27:01.100Z,3.53
2018-06-17T06:29:29.247Z,3.97
2018-06-17T06:31:57.387Z,3.93
2018-06-17T06:34:25.522Z,3.63
2018-06-17T06:36:53.713Z,3.40
2018-06-17T06:39:21.850Z,3.23
2018-06-17T06:41:49.998Z,3.80
2018-06-17T06:44:18.124Z,3.53
2018-06-17T06:46:46.263Z,3.60
2018-06-17T06:49:14.394Z,3.40
2018-06-17T06:51:42.556Z,3.63
2018-06-17T06:54:10.692Z,3.47
2018-06-17T06:56:38.822Z,3.60
2018-06-17T06:59:06.951Z,3.47
2018-06-17T07:01:46.545Z,3.40
2018-06-17T07:04:26.079Z,3.13
2018-06-17T07:07:05.509Z,3.93
2018-06-17T07:09:45.687Z,3.40
2018-06-17T07:12:13.821Z,3.40
2018-06-17T07:14:41.955Z,3.80
2018-06-17T07:17:21.439Z,3.30
2018-06-17T07:19:49.579Z,2.90
2018-06-17T07:22:17.740Z,3.37
2018-06-17T07:24:45.862Z,3.07
2018-06-17T07:27:25.351Z,3.37
2018-06-17T07:29:53.483Z,3.27
2018-06-17T07:32:21.612Z,3.27
2018-06-17T07:34:49.748Z,3.33
2018-06-17T07:37:17.902Z,3.60
2018-06-17T07:40:51.920Z,3.27
2018-06-17T07:43:20.077Z,3.13
2018-06-17T07:45:48.198Z,3.10
2018-06-17T07:48:27.696Z,3.30
2018-06-17T07:51:07.150Z,2.67
2018-06-17T07:53:35.286Z,3.17
2018-06-17T07:56:03.451Z,3.33
2018-06-17T07:58:31.551Z,2.57
2018-06-17T08:00:59.679Z,3.00
2018-06-17T08:03:27.862Z,3.10
2018-06-17T08:05:55.995Z,3.03
2018-06-17T08:08:24.133Z,2.47
2018-06-17T08:10:52.314Z,2.77
2018-06-17T08:13:20.379Z,2.90
2018-06-17T08:15:48.525Z,2.77
2018-06-17T08:18:16.641Z,2.83
2018-06-17T08:20:44.778Z,2.87
2018-06-17T08:23:12.899Z,2.83
2018-06-17T08:25:41.050Z,2.97
2018-06-17T08:28:09.174Z,3.00
2018-06-17T08:30:37.309Z,2.80
2018-06-17T08:33:05.476Z,2.63
2018-06-17T08:35:33.587Z,2.90
2018-06-17T08:38:01.733Z,3.20
2018-06-17T08:40:29.839Z,2.83
2018-06-17T08:42:57.970Z,3.07
2018-06-17T08:45:26.098Z,2.90
2018-06-17T08:47:54.272Z,2.40
2018-06-17T08:50:22.423Z,2.93
2018-06-17T08:52:50.543Z,2.70
2018-06-17T08:55:18.674Z,3.00
2018-06-17T08:57:46.795Z,2.67
2018-06-17T09:00:14.953Z,3.23
2018-06-17T09:02:43.069Z,2.83
2018-06-17T09:05:11.201Z,2.60
2018-06-17T09:07:39.374Z,3.33
2018-06-17T09:10:07.499Z,3.10
2018-06-17T09:12:35.618Z,2.90
2018-06-17T09:15:03.543Z,2.60
2018-06-17T09:17:31.666Z,3.00
2018-06-17T09:19:59.798Z,2.43
2018-06-17T09:22:27.918Z,2.83
2018-06-17T09:24:56.023Z,3.03
2018-06-17T09:27:24.138Z,2.43
2018-06-17T09:29:52.258Z,2.80
2018-06-17T09:32:27.206Z,2.80
2018-06-17T09:34:55.334Z,3.03
2018-06-17T09:37:23.477Z,2.87
2018-06-17T09:39:51.609Z,2.57
2018-06-17T09:42:19.744Z,3.10
2018-06-17T09:44:47.875Z,3.00
2018-06-17T09:47:15.982Z,3.10
2018-06-17T09:49:44.117Z,2.80
2018-06-17T09:52:12.321Z,2.80
2018-06-17T09:54:40.438Z,2.50
2018-06-17T09:57:08.575Z,2.60
2018-06-17T09:59:36.685Z,2.50
2018-06-17T10:02:04.815Z,2.63
2018-06-17T10:04:32.934Z,3.27
2018-06-17T10:07:01.067Z,2.80
2018-06-17T10:09:29.177Z,2.50
2018-06-17T10:11:57.300Z,2.73
2018-06-17T10:14:25.434Z,2.60
2018-06-17T10:16:53.558Z,2.73
2018-06-17T10:19:21.670Z,2.30
2018-06-17T10:21:49.806Z,2.40
2018-06-17T10:24:17.926Z,2.57
2018-06-17T10:26:46.052Z,3.73
2018-06-17T10:29:14.174Z,2.67
2018-06-17T10:31:42.335Z,15.97
2018-06-17T10:34:10.456Z,2.50
2018-06-17T10:36:38.588Z,2.30
2018-06-17T10:39:07.839Z,2.37
2018-06-17T10:41:35.979Z,2.63
2018-06-17T10:44:04.116Z,2.50
2018-06-17T10:46:32.262Z,2.80
2018-06-17T10:49:00.379Z,3.17
2018-06-17T10:51:28.510Z,3.00
2018-06-17T10:53:56.622Z,2.60
2018-06-17T10:56:24.755Z,2.67
2018-06-17T10:58:52.941Z,2.70
2018-06-17T11:01:21.046Z,2.60
2018-06-17T11:03:49.175Z,2.70
2018-06-17T11:06:17.314Z,3.20
2018-06-17T11:08:45.451Z,2.40
2018-06-17T11:11:13.582Z,2.50
2018-06-17T11:13:41.703Z,2.63
2018-06-17T11:16:09.830Z,2.80
2018-06-17T11:18:37.993Z,2.53
2018-06-17T11:21:06.112Z,2.50
2018-06-17T11:23:34.243Z,2.40
2018-06-17T11:26:02.354Z,2.40
2018-06-17T11:28:30.488Z,2.10
2018-06-17T11:30:58.602Z,2.47
2018-06-17T11:33:26.728Z,2.40
2018-06-17T11:35:54.919Z,1.90
2018-06-17T11:38:23.050Z,2.20
2018-06-17T11:40:51.175Z,2.27
2018-06-17T11:43:19.311Z,2.20
2018-06-17T11:45:47.433Z,2.60
2018-06-17T11:48:15.567Z,2.33
2018-06-17T11:50:43.695Z,2.40
2018-06-17T11:53:11.980Z,2.20
2018-06-17T11:55:40.097Z,2.30
2018-06-17T11:58:08.225Z,2.20
2018-06-17T12:00:36.348Z,2.00
2018-06-17T12:03:04.481Z,2.03
2018-06-17T12:05:32.614Z,2.67
2018-06-17T12:08:00.743Z,2.57
2018-06-17T12:10:28.875Z,2.50
2018-06-17T12:12:56.997Z,3.17
2018-06-17T12:15:25.120Z,2.40
2018-06-17T12:17:53.231Z,2.23
2018-06-17T12:20:21.351Z,2.37
2018-06-17T12:22:49.475Z,2.27
2018-06-17T12:25:17.627Z,2.13
2018-06-17T12:27:45.740Z,2.17
2018-06-17T12:30:13.866Z,2.47
2018-06-17T12:32:41.998Z,2.27
2018-06-17T12:35:10.123Z,2.57
2018-06-17T12:37:38.243Z,2.10
2018-06-17T12:40:06.380Z,2.40
2018-06-17T12:42:34.502Z,2.50
2018-06-17T12:45:02.643Z,1.90
2018-06-17T12:47:30.759Z,2.40
2018-06-17T12:49:58.940Z,2.60
2018-06-17T12:52:27.066Z,2.37
2018-06-17T12:54:55.259Z,2.27
2018-06-17T12:57:23.954Z,2.33
2018-06-17T12:59:52.075Z,3.17
2018-06-17T13:02:20.182Z,3.37
2018-06-17T13:04:48.311Z,3.03
2018-06-17T13:07:16.435Z,2.97
2018-06-17T13:09:44.550Z,2.43
2018-06-17T13:12:12.693Z,2.53
2018-06-17T13:14:40.831Z,2.70
2018-06-17T13:17:08.950Z,2.63
2018-06-17T13:19:37.108Z,2.37
2018-06-17T13:22:05.229Z,2.33
2018-06-17T13:24:33.372Z,2.97
2018-06-17T13:27:01.494Z,2.40
2018-06-17T13:29:29.660Z,2.10
2018-06-17T13:31:57.809Z,3.03
2018-06-17T13:34:25.971Z,2.67
2018-06-17T13:36:54.086Z,2.13
2018-06-17T13:39:22.222Z,2.10
2018-06-17T13:41:50.342Z,1.97
2018-06-17T13:44:18.459Z,2.50
2018-06-17T13:46:46.607Z,2.70
2018-06-17T13:49:14.737Z,2.70
2018-06-17T13:51:42.914Z,2.43
2018-06-17T13:54:11.056Z,2.10
2018-06-17T13:56:39.178Z,2.47
2018-06-17T13:59:07.297Z,2.57
2018-06-17T14:01:35.430Z,2.30
2018-06-17T14:04:03.570Z,2.67
2018-06-17T14:06:31.698Z,2.87
2018-06-17T14:08:59.829Z,2.70
2018-06-17T14:11:27.966Z,2.60
2018-06-17T14:13:56.108Z,2.60
2018-06-17T14:16:24.308Z,2.93
2018-06-17T14:18:52.413Z,2.90
2018-06-17T14:21:20.523Z,2.73
2018-06-17T14:23:48.659Z,2.97
2018-06-17T14:26:16.786Z,2.77
2018-06-17T14:28:44.906Z,2.30
2018-06-17T14:31:13.054Z,2.60
2018-06-17T14:33:41.187Z,2.93
2018-06-17T14:36:09.318Z,2.20
2018-06-17T14:38:37.425Z,2.57
2018-06-17T14:41:11.115Z,2.50
2018-06-17T14:43:45.752Z,2.50
2018-06-17T14:46:19.411Z,2.70
2018-06-17T14:48:57.739Z,2.30
2018-06-17T14:51:31.260Z,3.10
2018-06-17T14:53:59.562Z,2.50
2018-06-17T14:56:28.152Z,2.50
2018-06-17T14:58:59.490Z,2.67
2018-06-17T15:01:27.622Z,2.50
2018-06-17T15:03:55.731Z,2.30
2018-06-17T15:06:23.839Z,2.40
2018-06-17T15:08:51.979Z,2.10
2018-06-17T15:11:20.080Z,1.93
2018-06-17T15:13:48.264Z,2.57
2018-06-17T15:16:16.370Z,2.37
2018-06-17T15:18:44.483Z,2.30
2018-06-17T15:21:12.598Z,2.57
2018-06-17T15:23:40.729Z,2.10
2018-06-17T15:26:08.834Z,2.30
2018-06-17T15:28:36.954Z,2.20
2018-06-17T15:31:10.622Z,2.50
2018-06-17T15:33:44.203Z,2.80
2018-06-17T15:36:17.619Z,2.63
2018-06-17T15:38:53.820Z,2.67
2018-06-17T15:41:28.138Z,2.40
2018-06-17T15:43:57.453Z,2.90
2018-06-17T15:46:26.234Z,2.23
2018-06-17T15:48:54.615Z,2.60
2018-06-17T15:51:22.820Z,3.17
2018-06-17T15:53:50.977Z,2.60
2018-06-17T15:56:19.090Z,3.30
2018-06-17T15:58:47.234Z,2.60
2018-06-17T16:01:15.350Z,2.40
2018-06-17T16:03:43.539Z,2.70
2018-06-17T16:06:11.727Z,2.77
2018-06-17T16:08:39.850Z,3.27
2018-06-17T16:11:07.959Z,2.90
2018-06-17T16:13:41.351Z,2.90
2018-06-17T16:16:14.919Z,3.40
2018-06-17T16:18:48.498Z,2.80
2018-06-17T16:21:16.635Z,2.97
2018-06-17T16:23:44.941Z,3.03
2018-06-17T16:26:13.058Z,3.10
2018-06-17T16:28:41.187Z,3.00
2018-06-17T16:31:09.363Z,3.07
2018-06-17T16:33:37.478Z,3.20
2018-06-17T16:36:05.624Z,3.13
2018-06-17T16:38:33.736Z,2.80
2018-06-17T16:41:01.866Z,3.33
2018-06-17T16:43:30.012Z,3.20
2018-06-17T16:45:58.142Z,3.27
2018-06-17T16:48:26.254Z,3.20
2018-06-17T16:50:59.898Z,3.07
2018-06-17T16:53:33.419Z,3.00
2018-06-17T16:56:06.991Z,2.87
2018-06-17T16:58:40.534Z,3.40
2018-06-17T17:01:08.658Z,2.90
2018-06-17T17:03:36.790Z,3.13
2018-06-17T17:06:05.175Z,3.10
2018-06-17T17:08:33.299Z,3.37
2018-06-17T17:11:01.404Z,3.37
2018-06-17T17:13:29.507Z,3.17
2018-06-17T17:15:57.936Z,3.27
2018-06-17T17:18:26.027Z,2.80
2018-06-17T17:20:54.190Z,3.00
2018-06-17T17:23:22.352Z,2.90
2018-06-17T17:25:50.427Z,3.40
2018-06-17T17:28:18.530Z,2.80
2018-06-17T17:30:48.294Z,3.00
2018-06-17T17:33:21.894Z,3.20
2018-06-17T17:35:55.659Z,3.23
2018-06-17T17:38:27.119Z,2.90
2018-06-17T17:40:58.062Z,2.60
2018-06-17T17:43:26.228Z,3.83
2018-06-17T17:45:59.727Z,3.33
2018-06-17T17:48:27.823Z,3.43
2018-06-17T17:50:55.951Z,3.13
2018-06-17T17:53:24.122Z,3.60
2018-06-17T17:55:52.239Z,3.20
2018-06-17T17:58:20.341Z,3.60
2018-06-17T18:00:48.450Z,3.40
2018-06-17T18:03:16.651Z,3.70
2018-06-17T18:05:44.829Z,3.30
2018-06-17T18:08:12.941Z,3.57
2018-06-17T18:10:41.082Z,3.23
2018-06-17T18:13:09.197Z,3.60
2018-06-17T18:15:37.314Z,3.13
2018-06-17T18:18:05.194Z,3.50
2018-06-17T18:20:33.307Z,3.90
2018-06-17T18:23:01.418Z,3.57
2018-06-17T18:25:35.126Z,3.40
2018-06-17T18:28:08.446Z,3.53
2018-06-17T18:30:41.965Z,3.60
2018-06-17T18:33:15.532Z,3.00
2018-06-17T18:36:16.750Z,3.93
2018-06-17T18:38:46.242Z,3.50
2018-06-17T18:41:15.247Z,3.57
2018-06-17T18:43:43.380Z,4.10
2018-06-17T18:46:12.630Z,4.00
2018-06-17T18:48:40.752Z,3.70
2018-06-17T18:51:08.860Z,3.80
2018-06-17T18:53:36.980Z,3.90
2018-06-17T18:56:05.087Z,3.50
2018-06-17T18:58:33.198Z,3.80
2018-06-17T19:01:01.319Z,3.80
2018-06-17T19:03:29.426Z,3.83
2018-06-17T19:05:57.607Z,3.60
2018-06-17T19:08:31.058Z,3.90
2018-06-17T19:11:04.614Z,3.63
2018-06-17T19:13:38.109Z,3.43
2018-06-17T19:16:13.994Z,3.40
2018-06-17T19:18:42.110Z,4.20
2018-06-17T19:21:10.227Z,3.70
2018-06-17T19:23:38.387Z,3.60
2018-06-17T19:26:06.519Z,3.63
2018-06-17T19:28:34.678Z,3.73
2018-06-17T19:31:02.790Z,3.40
2018-06-17T19:33:30.902Z,3.67
2018-06-17T19:35:59.022Z,3.60
2018-06-17T19:38:27.218Z,3.93
2018-06-17T19:40:55.363Z,3.47
2018-06-17T19:43:23.469Z,4.13
2018-06-17T19:45:51.585Z,3.90
2018-06-17T19:48:19.706Z,3.57
2018-06-17T19:50:53.374Z,3.83
2018-06-17T19:53:26.671Z,3.87
2018-06-17T19:56:00.216Z,3.97
2018-06-17T19:58:33.827Z,4.33
2018-06-17T20:01:03.290Z,3.67
2018-06-17T20:03:31.471Z,3.90
2018-06-17T20:05:59.772Z,3.90
2018-06-17T20:08:27.860Z,3.60
2018-06-17T20:10:55.985Z,3.70
2018-06-17T20:13:24.111Z,3.80
2018-06-17T20:15:52.218Z,3.80
2018-06-17T20:18:20.322Z,3.60
2018-06-17T20:20:48.434Z,3.77
2018-06-17T20:23:16.542Z,3.50
2018-06-17T20:25:44.806Z,3.30
2018-06-17T20:28:12.919Z,3.40
2018-06-17T20:30:41.031Z,3.80
2018-06-17T20:33:14.646Z,3.57
2018-06-17T20:35:48.044Z,3.53
2018-06-17T20:38:21.556Z,3.60
2018-06-17T20:40:54.998Z,3.50
2018-06-17T20:43:28.534Z,3.70
2018-06-17T20:45:56.953Z,3.37
2018-06-17T20:48:25.059Z,3.73
2018-06-17T20:50:53.159Z,3.87
2018-06-17T20:53:21.254Z,3.37
2018-06-17T20:55:49.362Z,3.47
2018-06-17T20:58:17.491Z,3.23
2018-06-17T21:00:45.597Z,3.87
2018-06-17T21:03:13.822Z,3.40
2018-06-17T21:05:41.954Z,3.47
2018-06-17T21:08:10.059Z,3.83
2018-06-17T21:10:38.212Z,3.63
2018-06-17T21:13:06.317Z,3.40
2018-06-17T21:15:34.430Z,3.53
2018-06-17T21:18:02.543Z,3.50
2018-06-17T21:20:36.005Z,3.60
2018-06-17T21:23:09.465Z,3.80
2018-06-17T21:25:43.010Z,3.97
2018-06-17T21:28:11.195Z,4.37
2018-06-17T21:30:39.298Z,4.07
2018-06-17T21:33:07.414Z,3.60
2018-06-17T21:35:35.519Z,4.33
2018-06-17T21:38:03.650Z,4.00
2018-06-17T21:40:31.766Z,4.13
2018-06-17T21:42:59.876Z,4.13
2018-06-17T21:45:27.993Z,4.43
2018-06-17T21:47:56.126Z,4.27
2018-06-17T21:50:24.259Z,3.90
2018-06-17T21:52:52.361Z,4.30
2018-06-17T21:55:20.467Z,4.40
2018-06-17T21:57:48.578Z,4.10
2018-06-17T22:00:16.691Z,4.37
2018-06-17T22:02:45.390Z,3.60
2018-06-17T22:05:13.890Z,4.20
2018-06-17T22:07:47.446Z,4.03
2018-06-17T22:10:20.863Z,3.90
2018-06-17T22:12:54.499Z,4.10
2018-06-17T22:15:28.062Z,4.00
2018-06-17T22:17:56.178Z,4.37
2018-06-17T22:20:24.377Z,4.90
2018-06-17T22:22:52.467Z,4.33
2018-06-17T22:25:20.575Z,4.30
2018-06-17T22:27:48.692Z,4.30
2018-06-17T22:30:16.794Z,4.40
2018-06-17T22:32:44.889Z,4.40
2018-06-17T22:35:13.221Z,4.10
2018-06-17T22:37:41.354Z,4.10
2018-06-17T22:40:09.455Z,4.87
2018-06-17T22:42:38.178Z,4.77
2018-06-17T22:45:06.474Z,4.83
2018-06-17T22:47:39.928Z,4.90
2018-06-17T22:50:08.638Z,4.73
2018-06-17T22:52:48.702Z,4.63
2018-06-17T22:55:16.802Z,4.57
2018-06-17T22:57:50.415Z,4.43
2018-06-17T23:00:24.142Z,4.70
2018-06-17T23:02:57.542Z,4.23
2018-06-17T23:05:31.003Z,4.87
2018-06-17T23:08:04.365Z,4.37
2018-06-17T23:10:32.474Z,4.50
2018-06-17T23:13:00.582Z,4.93
2018-06-17T23:15:28.684Z,4.47
2018-06-17T23:17:56.794Z,4.20
2018-06-17T23:20:24.903Z,4.37
2018-06-17T23:22:53.308Z,4.60
2018-06-17T23:25:21.495Z,4.20
2018-06-17T23:27:49.614Z,4.73
2018-06-17T23:30:17.787Z,4.20
2018-06-17T23:32:45.906Z,3.90
2018-06-17T23:35:14.022Z,4.33
2018-06-17T23:37:42.128Z,4.37
2018-06-17T23:40:10.231Z,4.33
2018-06-17T23:42:38.347Z,4.50
2018-06-17T23:45:06.555Z,4.17
2018-06-17T23:47:39.921Z,4.13
2018-06-17T23:51:12.961Z,3.83
2018-06-17T23:53:46.471Z,4.50
2018-06-17T23:56:14.589Z,4.60
2018-06-17T23:58:42.704Z,4.67
